createdAt,value
2023-05-21T00:01:39.414Z,5.90
2023-05-21T00:04:09.409Z,6.40
2023-05-21T00:06:37.210Z,5.03
2023-05-21T00:09:05.906Z,5.15
2023-05-21T00:11:33.381Z,6.07
2023-05-21T00:14:00.608Z,4.22
2023-05-21T00:16:28.131Z,5.00
2023-05-21T00:18:55.616Z,5.15
2023-05-21T00:21:23.044Z,4.75
2023-05-21T00:23:50.364Z,3.50
2023-05-21T00:26:17.533Z,6.82
2023-05-21T00:28:45.601Z,6.18
2023-05-21T00:31:13.042Z,3.97
2023-05-21T00:33:40.453Z,4.40
2023-05-21T00:36:07.842Z,4.80
2023-05-21T00:38:35.310Z,3.55
2023-05-21T00:41:03.518Z,5.55
2023-05-21T00:43:32.661Z,5.05
2023-05-21T00:46:00.187Z,5.20
2023-05-21T00:48:27.652Z,6.13
2023-05-21T00:50:54.978Z,5.65
2023-05-21T00:53:22.657Z,5.88
2023-05-21T00:55:50.970Z,7.88
2023-05-21T00:58:18.643Z,4.93
2023-05-21T01:00:46.992Z,7.82
2023-05-21T01:03:14.812Z,5.90
2023-05-21T01:05:45.206Z,8.40
2023-05-21T01:08:12.861Z,5.82
2023-05-21T01:10:40.180Z,4.72
2023-05-21T01:13:08.292Z,4.38
2023-05-21T01:15:38.008Z,5.70
2023-05-21T01:18:06.185Z,5.63
2023-05-21T01:20:33.778Z,9.60
2023-05-21T01:23:02.462Z,8.68
2023-05-21T01:25:31.390Z,7.13
2023-05-21T01:27:58.932Z,7.97
2023-05-21T01:30:27.163Z,5.50
2023-05-21T01:33:03.932Z,4.65
2023-05-21T01:35:33.451Z,6.65
2023-05-21T01:38:18.826Z,5.57
2023-05-21T01:40:52.179Z,5.60
2023-05-21T01:43:20.868Z,7.30
2023-05-21T01:45:52.510Z,7.82
2023-05-21T01:48:20.168Z,9.15
2023-05-21T01:50:50.085Z,8.52
2023-05-21T01:53:17.736Z,6.20
2023-05-21T01:55:45.989Z,6.85
2023-05-21T01:58:13.369Z,8.63
2023-05-21T02:00:40.641Z,6.47
2023-05-21T02:03:08.972Z,8.80
2023-05-21T02:05:36.685Z,6.32
2023-05-21T02:08:05.481Z,9.18
2023-05-21T02:10:32.928Z,7.65
2023-05-21T02:13:00.283Z,7.03
2023-05-21T02:15:27.530Z,9.48
2023-05-21T02:17:55.601Z,5.80
2023-05-21T02:20:22.988Z,10.13
2023-05-21T02:22:50.502Z,5.93
2023-05-21T02:25:19.831Z,9.70
2023-05-21T02:27:48.389Z,10.43
2023-05-21T02:30:16.276Z,7.63
2023-05-21T02:32:45.026Z,10.38
2023-05-21T02:35:13.310Z,6.60
2023-05-21T02:37:41.294Z,6.75
2023-05-21T02:40:10.088Z,8.15
2023-05-21T02:42:39.995Z,8.00
2023-05-21T02:45:11.143Z,4.82
2023-05-21T02:47:40.836Z,6.85
2023-05-21T02:50:09.337Z,8.60
2023-05-21T02:52:43.814Z,7.72
2023-05-21T02:55:11.069Z,9.95
2023-05-21T02:57:38.322Z,6.22
2023-05-21T03:00:06.353Z,8.40
2023-05-21T03:02:34.759Z,7.65
2023-05-21T03:05:02.947Z,7.13
2023-05-21T03:07:30.695Z,7.43
2023-05-21T03:09:58.166Z,10.05
2023-05-21T03:12:25.683Z,9.77
2023-05-21T03:14:53.260Z,9.80
2023-05-21T03:17:22.267Z,6.32
2023-05-21T03:19:49.521Z,6.95
2023-05-21T03:22:17.437Z,9.10
2023-05-21T03:24:46.330Z,8.13
2023-05-21T03:27:14.044Z,5.22
2023-05-21T03:29:43.305Z,7.78
2023-05-21T03:32:13.527Z,8.73
2023-05-21T03:34:41.415Z,6.82
2023-05-21T03:37:09.069Z,6.07
2023-05-21T03:39:37.177Z,7.53
2023-05-21T03:42:06.117Z,7.57
2023-05-21T03:44:40.451Z,7.68
2023-05-21T03:47:32.087Z,8.57
2023-05-21T03:50:02.788Z,8.13
2023-05-21T03:52:31.321Z,8.60
2023-05-21T03:54:58.777Z,7.07
2023-05-21T03:57:26.148Z,7.88
2023-05-21T03:59:53.513Z,6.07
2023-05-21T04:02:21.953Z,7.28
2023-05-21T04:04:51.884Z,8.82
2023-05-21T04:07:20.055Z,8.38
2023-05-21T04:09:47.318Z,9.25
2023-05-21T04:12:14.734Z,8.95
2023-05-21T04:14:42.445Z,5.65
2023-05-21T04:17:12.772Z,7.80
2023-05-21T04:19:40.868Z,4.90
2023-05-21T04:22:11.131Z,9.13
2023-05-21T04:24:39.358Z,5.70
2023-05-21T04:27:14.211Z,9.30
2023-05-21T04:29:44.628Z,9.07
2023-05-21T04:32:15.209Z,7.80
2023-05-21T04:34:42.981Z,5.43
2023-05-21T04:37:10.579Z,7.30
2023-05-21T04:39:37.798Z,6.13
2023-05-21T04:42:05.659Z,4.65
2023-05-21T04:44:33.763Z,10.45
2023-05-21T04:47:02.390Z,5.68
2023-05-21T04:49:30.433Z,4.32
2023-05-21T04:51:57.714Z,5.13
2023-05-21T04:54:25.090Z,7.53
2023-05-21T04:56:52.338Z,6.68
2023-05-21T04:59:20.113Z,4.32
2023-05-21T05:01:47.454Z,4.40
2023-05-21T05:04:14.723Z,6.38
2023-05-21T05:06:42.014Z,7.95
2023-05-21T05:09:09.246Z,10.43
2023-05-21T05:11:36.916Z,5.75
2023-05-21T05:14:04.951Z,7.28
2023-05-21T05:16:32.683Z,9.18
2023-05-21T05:19:00.143Z,6.25
2023-05-21T05:21:27.557Z,8.38
2023-05-21T05:23:55.001Z,6.30
2023-05-21T05:26:26.725Z,7.65
2023-05-21T05:28:54.113Z,5.00
2023-05-21T05:31:21.505Z,4.70
2023-05-21T05:33:49.251Z,4.22
2023-05-21T05:36:16.736Z,5.50
2023-05-21T05:38:44.439Z,5.30
2023-05-21T05:41:11.953Z,4.57
2023-05-21T05:43:39.900Z,6.72
2023-05-21T05:46:07.246Z,5.57
2023-05-21T05:48:34.617Z,6.65
2023-05-21T05:51:02.587Z,6.45
2023-05-21T05:53:32.546Z,4.53
2023-05-21T05:56:00.224Z,3.72
2023-05-21T05:58:29.937Z,5.90
2023-05-21T06:01:06.805Z,5.75
2023-05-21T06:03:34.266Z,4.65
2023-05-21T06:06:11.197Z,6.55
2023-05-21T06:08:40.640Z,4.93
2023-05-21T06:11:08.018Z,6.05
2023-05-21T06:13:35.727Z,5.78
2023-05-21T06:16:04.445Z,7.28
2023-05-21T06:18:32.754Z,4.53
2023-05-21T06:21:00.211Z,6.95
2023-05-21T06:23:28.373Z,8.68
2023-05-21T06:25:55.869Z,6.47
2023-05-21T06:28:23.410Z,3.78
2023-05-21T06:30:51.756Z,5.60
2023-05-21T06:33:20.027Z,6.65
2023-05-21T06:35:47.412Z,5.22
2023-05-21T06:38:14.844Z,5.53
2023-05-21T06:40:44.676Z,9.90
2023-05-21T06:43:16.396Z,7.43
2023-05-21T06:46:09.592Z,9.18
2023-05-21T06:48:41.111Z,12.45
2023-05-21T06:51:08.501Z,7.55
2023-05-21T06:53:36.086Z,9.15
2023-05-21T06:56:05.032Z,4.53
2023-05-21T06:58:54.549Z,5.72
2023-05-21T07:01:22.902Z,4.95
2023-05-21T07:03:50.220Z,5.00
2023-05-21T07:06:17.964Z,6.85
2023-05-21T07:08:46.203Z,6.82
2023-05-21T07:11:13.696Z,4.35
2023-05-21T07:13:41.386Z,6.30
2023-05-21T07:16:08.919Z,8.82
2023-05-21T07:18:38.759Z,5.68
2023-05-21T07:21:06.190Z,5.90
2023-05-21T07:23:33.683Z,4.78
2023-05-21T07:26:00.943Z,5.20
2023-05-21T07:28:28.434Z,5.07
2023-05-21T07:30:56.236Z,8.38
2023-05-21T07:33:31.171Z,6.82
2023-05-21T07:35:58.486Z,10.10
2023-05-21T07:38:26.404Z,4.47
2023-05-21T07:40:53.637Z,4.03
2023-05-21T07:43:21.527Z,7.80
2023-05-21T07:45:48.892Z,5.40
2023-05-21T07:48:16.880Z,6.80
2023-05-21T07:50:58.866Z,5.72
2023-05-21T07:53:27.187Z,7.03
2023-05-21T07:55:55.526Z,7.28
2023-05-21T07:58:27.293Z,4.32
2023-05-21T08:00:54.643Z,5.25
2023-05-21T08:03:22.069Z,4.78
2023-05-21T08:05:51.020Z,6.63
2023-05-21T08:08:19.758Z,5.72
2023-05-21T08:10:48.103Z,6.13
2023-05-21T08:13:16.785Z,5.55
2023-05-21T08:15:44.471Z,9.88
2023-05-21T08:18:12.704Z,8.63
2023-05-21T08:20:43.038Z,7.88
2023-05-21T08:23:11.352Z,7.72
2023-05-21T08:25:43.523Z,6.53
2023-05-21T08:28:11.600Z,8.52
2023-05-21T08:30:39.025Z,4.78
2023-05-21T08:33:06.488Z,8.82
2023-05-21T08:35:34.823Z,4.82
2023-05-21T08:38:18.878Z,4.13
2023-05-21T08:40:59.178Z,6.45
2023-05-21T08:43:29.830Z,8.43
2023-05-21T08:46:03.861Z,4.35
2023-05-21T08:48:36.672Z,5.78
2023-05-21T08:51:06.408Z,7.03
2023-05-21T08:53:38.874Z,7.13
2023-05-21T08:58:47.701Z,8.32
2023-05-21T09:01:19.609Z,5.30
2023-05-21T09:03:54.436Z,6.72
2023-05-21T09:06:26.102Z,4.45
2023-05-21T09:09:02.986Z,4.63
2023-05-21T09:11:38.112Z,5.72
2023-05-21T09:14:06.229Z,4.93
2023-05-21T09:16:50.250Z,5.40
2023-05-21T09:19:22.268Z,7.28
2023-05-21T09:21:52.988Z,4.82
2023-05-21T09:24:23.149Z,5.55
2023-05-21T09:26:51.383Z,7.03
2023-05-21T09:29:19.727Z,4.43
2023-05-21T09:31:47.471Z,8.23
2023-05-21T09:34:15.356Z,4.10
2023-05-21T09:36:44.324Z,5.70
2023-05-21T09:39:16.606Z,6.90
2023-05-21T09:41:45.381Z,10.68
2023-05-21T09:44:13.575Z,3.75
2023-05-21T09:46:42.264Z,5.10
2023-05-21T09:49:24.924Z,4.50
2023-05-21T09:51:57.176Z,7.20
2023-05-21T09:54:26.910Z,6.97
2023-05-21T09:56:54.205Z,6.30
2023-05-21T09:59:22.077Z,7.88
2023-05-21T10:01:53.508Z,8.65
2023-05-21T10:04:23.069Z,14.63
2023-05-21T10:06:51.149Z,4.88
2023-05-21T10:09:20.069Z,8.00
2023-05-21T10:11:49.530Z,6.20
2023-05-21T10:14:20.286Z,4.65
2023-05-21T10:16:48.449Z,4.97
2023-05-21T10:19:16.200Z,6.32
2023-05-21T10:21:45.001Z,6.35
2023-05-21T10:24:13.751Z,8.35
2023-05-21T10:26:41.415Z,4.75
2023-05-21T10:29:09.274Z,4.55
2023-05-21T10:31:38.708Z,6.10
2023-05-21T10:34:06.414Z,5.85
2023-05-21T10:36:36.453Z,8.50
2023-05-21T10:39:04.371Z,5.35
2023-05-21T10:41:43.344Z,8.68
2023-05-21T10:44:17.481Z,7.00
2023-05-21T10:47:02.194Z,7.47
2023-05-21T10:49:54.873Z,8.85
2023-05-21T10:52:33.805Z,9.20
2023-05-21T10:55:17.750Z,6.20
2023-05-21T10:58:12.658Z,6.22
2023-05-21T11:00:40.779Z,9.70
2023-05-21T11:03:09.114Z,7.88
2023-05-21T11:05:56.775Z,8.48
2023-05-21T11:08:24.014Z,9.70
2023-05-21T11:10:55.358Z,10.50
2023-05-21T11:13:23.656Z,8.65
2023-05-21T11:16:05.193Z,7.43
2023-05-21T11:18:55.097Z,7.05
2023-05-21T11:21:22.930Z,10.38
2023-05-21T11:24:01.399Z,9.88
2023-05-21T11:26:47.812Z,6.57
2023-05-21T11:29:15.382Z,9.05
2023-05-21T11:31:47.212Z,11.15
2023-05-21T11:34:28.447Z,13.48
2023-05-21T11:37:17.920Z,10.00
2023-05-21T11:39:45.950Z,9.52
2023-05-21T11:42:13.753Z,10.95
2023-05-21T11:44:45.516Z,12.40
2023-05-21T11:47:17.971Z,10.93
2023-05-21T11:49:46.175Z,7.97
2023-05-21T11:52:14.500Z,9.90
2023-05-21T11:54:48.592Z,10.18
2023-05-21T11:57:18.565Z,9.50
2023-05-21T11:59:46.989Z,8.73
2023-05-21T12:02:18.749Z,9.15
2023-05-21T12:04:50.596Z,9.88
2023-05-21T12:07:19.499Z,10.60
2023-05-21T12:09:49.308Z,7.95
2023-05-21T12:12:18.425Z,12.73
2023-05-21T12:14:47.966Z,11.57
2023-05-21T12:17:23.554Z,12.35
2023-05-21T12:19:53.429Z,7.57
2023-05-21T12:22:21.512Z,14.07
2023-05-21T12:24:48.975Z,11.30
2023-05-21T12:27:18.417Z,10.70
2023-05-21T12:29:51.651Z,13.90
2023-05-21T12:32:21.001Z,15.68
2023-05-21T12:34:51.512Z,9.02
2023-05-21T12:39:52.368Z,13.75
2023-05-21T12:42:30.753Z,11.48
2023-05-21T12:44:58.632Z,13.48
2023-05-21T12:47:27.558Z,12.45
2023-05-21T12:50:01.631Z,13.70
2023-05-21T12:52:29.525Z,15.10
2023-05-21T12:54:57.936Z,11.85
2023-05-21T12:57:43.928Z,16.73
2023-05-21T13:00:14.890Z,12.70
2023-05-21T13:02:44.434Z,13.30
2023-05-21T13:05:18.915Z,10.70
2023-05-21T13:07:46.776Z,14.88
2023-05-21T13:10:16.610Z,15.05
2023-05-21T13:12:45.113Z,14.20
2023-05-21T13:15:12.659Z,13.13
2023-05-21T13:17:40.153Z,11.50
2023-05-21T13:20:12.600Z,15.57
2023-05-21T13:22:47.766Z,13.90
2023-05-21T13:25:22.441Z,13.82
2023-05-21T13:27:51.267Z,14.73
2023-05-21T13:30:19.776Z,13.75
2023-05-21T13:32:47.683Z,12.27
2023-05-21T13:35:16.852Z,10.05
2023-05-21T13:37:45.006Z,15.32
2023-05-21T13:40:17.532Z,13.45
2023-05-21T13:42:46.662Z,13.43
2023-05-21T13:45:18.739Z,12.52
2023-05-21T13:47:47.552Z,13.20
2023-05-21T13:50:16.099Z,18.10
2023-05-21T13:52:43.398Z,15.45
2023-05-21T13:55:11.108Z,17.98
2023-05-21T13:57:38.674Z,15.45
2023-05-21T14:00:09.225Z,17.23
2023-05-21T14:02:37.698Z,16.42
2023-05-21T14:05:05.486Z,16.10
2023-05-21T14:07:32.897Z,15.50
2023-05-21T14:10:00.789Z,19.77
2023-05-21T14:12:29.277Z,17.33
2023-05-21T14:14:57.194Z,13.93
2023-05-21T14:17:24.732Z,17.60
2023-05-21T14:19:52.428Z,19.20
2023-05-21T14:22:19.677Z,16.00
2023-05-21T14:24:47.329Z,19.67
2023-05-21T14:27:15.887Z,21.75
2023-05-21T14:29:43.252Z,16.58
2023-05-21T14:32:10.599Z,17.70
2023-05-21T14:34:39.070Z,17.83
2023-05-21T14:37:06.367Z,16.90
2023-05-21T14:39:33.641Z,20.88
2023-05-21T14:42:04.738Z,17.42
2023-05-21T14:44:32.638Z,18.40
2023-05-21T14:47:00.308Z,18.30
2023-05-21T14:49:27.753Z,17.70
2023-05-21T14:51:55.052Z,18.45
2023-05-21T14:54:22.390Z,19.65
2023-05-21T14:56:49.637Z,18.48
2023-05-21T14:59:16.875Z,15.82
2023-05-21T15:01:44.469Z,16.63
2023-05-21T15:04:11.947Z,18.23
2023-05-21T15:06:39.403Z,20.58
2023-05-21T15:09:06.789Z,20.17
2023-05-21T15:11:34.598Z,19.80
2023-05-21T15:14:01.991Z,15.30
2023-05-21T15:16:29.551Z,18.35
2023-05-21T15:18:57.176Z,16.75
2023-05-21T15:21:27.296Z,18.02
2023-05-21T15:23:55.553Z,21.08
2023-05-21T15:26:25.411Z,17.00
2023-05-21T15:28:53.099Z,16.55
2023-05-21T15:31:20.685Z,17.15
2023-05-21T15:33:48.085Z,15.93
2023-05-21T15:36:15.682Z,20.05
2023-05-21T15:38:42.969Z,17.05
2023-05-21T15:41:10.519Z,20.25
2023-05-21T15:43:38.469Z,15.70
2023-05-21T15:46:06.027Z,18.38
2023-05-21T15:48:33.394Z,16.83
2023-05-21T15:51:00.671Z,17.23
2023-05-21T15:53:27.961Z,17.50
2023-05-21T15:55:56.684Z,20.88
2023-05-21T15:58:23.981Z,17.27
2023-05-21T16:00:51.308Z,16.90
2023-05-21T16:03:18.821Z,16.48
2023-05-21T16:05:46.222Z,18.00
2023-05-21T16:08:13.616Z,18.75
2023-05-21T16:10:40.993Z,18.58
2023-05-21T16:13:08.429Z,17.35
2023-05-21T16:15:37.612Z,17.50
2023-05-21T16:18:05.295Z,17.55
2023-05-21T16:20:33.433Z,18.42
2023-05-21T16:23:01.016Z,16.40
2023-05-21T16:25:28.455Z,14.43
2023-05-21T16:27:55.844Z,18.77
2023-05-21T16:30:24.167Z,19.17
2023-05-21T16:32:51.656Z,22.52
2023-05-21T16:35:19.246Z,16.02
2023-05-21T16:37:46.751Z,17.15
2023-05-21T16:40:14.117Z,17.38
2023-05-21T16:42:41.475Z,18.90
2023-05-21T16:45:09.180Z,20.35
2023-05-21T16:47:36.550Z,21.02
2023-05-21T16:50:05.199Z,18.70
2023-05-21T16:52:32.573Z,20.52
2023-05-21T16:54:59.841Z,21.80
2023-05-21T16:57:27.039Z,22.67
2023-05-21T16:59:54.368Z,18.88
2023-05-21T17:02:21.801Z,22.02
2023-05-21T17:04:49.111Z,20.92
2023-05-21T17:07:16.697Z,19.23
2023-05-21T17:09:43.908Z,16.90
2023-05-21T17:12:11.172Z,19.92
2023-05-21T17:14:39.818Z,17.83
2023-05-21T17:17:07.143Z,21.20
2023-05-21T17:19:34.553Z,23.55
2023-05-21T17:22:01.883Z,22.52
2023-05-21T17:24:30.906Z,21.88
2023-05-21T17:26:58.285Z,20.08
2023-05-21T17:29:25.929Z,25.30
2023-05-21T17:31:53.366Z,17.65
2023-05-21T17:34:21.160Z,22.48
2023-05-21T17:36:48.452Z,21.02
2023-05-21T17:39:15.769Z,21.80
2023-05-21T17:41:43.127Z,19.08
2023-05-21T17:44:11.406Z,25.05
2023-05-21T17:46:38.708Z,21.13
2023-05-21T17:49:08.272Z,18.95
2023-05-21T17:51:36.706Z,23.00
2023-05-21T17:54:04.614Z,24.10
2023-05-21T17:56:38.888Z,19.02
2023-05-21T17:59:10.178Z,20.55
2023-05-21T18:01:39.400Z,20.67
2023-05-21T18:04:12.507Z,16.98
2023-05-21T18:06:40.138Z,22.15
2023-05-21T18:09:08.018Z,20.00
2023-05-21T18:11:36.108Z,16.95
2023-05-21T18:14:06.219Z,17.77
2023-05-21T18:16:33.515Z,21.15
2023-05-21T18:19:05.972Z,21.13
2023-05-21T18:21:37.455Z,23.52
2023-05-21T18:24:06.486Z,23.80
2023-05-21T18:26:33.861Z,19.15
2023-05-21T18:29:01.682Z,19.00
2023-05-21T18:31:29.084Z,17.65
2023-05-21T18:33:56.716Z,18.38
2023-05-21T18:36:24.109Z,20.77
2023-05-21T18:38:52.537Z,20.63
2023-05-21T18:41:21.420Z,18.88
2023-05-21T18:43:48.839Z,17.02
2023-05-21T18:46:19.485Z,20.25
2023-05-21T18:48:48.845Z,18.00
2023-05-21T18:51:16.211Z,15.73
2023-05-21T18:53:43.420Z,17.95
2023-05-21T18:56:10.813Z,18.35
2023-05-21T18:58:38.617Z,17.27
2023-05-21T19:01:06.833Z,18.65
2023-05-21T19:03:34.092Z,18.67
2023-05-21T19:06:01.549Z,19.17
2023-05-21T19:08:28.831Z,14.48
2023-05-21T19:10:56.138Z,16.05
2023-05-21T19:13:23.720Z,17.90
2023-05-21T19:15:51.619Z,17.23
2023-05-21T19:18:18.903Z,18.55
2023-05-21T19:20:46.183Z,21.10
2023-05-21T19:23:13.718Z,18.80
2023-05-21T19:25:41.734Z,17.60
2023-05-21T19:28:09.044Z,17.95
2023-05-21T19:30:36.626Z,18.30
2023-05-21T19:33:04.081Z,16.90
2023-05-21T19:35:31.532Z,19.13
2023-05-21T19:38:00.624Z,15.45
2023-05-21T19:40:30.464Z,14.07
2023-05-21T19:42:57.909Z,17.83
2023-05-21T19:45:25.878Z,16.27
2023-05-21T19:47:53.330Z,15.63
2023-05-21T19:50:20.679Z,17.40
2023-05-21T19:52:48.022Z,16.67
2023-05-21T19:55:20.260Z,16.73
2023-05-21T19:57:47.774Z,17.40
2023-05-21T20:00:15.821Z,19.17
2023-05-21T20:02:43.116Z,14.82
2023-05-21T20:05:10.519Z,18.08
2023-05-21T20:07:43.926Z,19.23
2023-05-21T20:10:11.438Z,17.75
2023-05-21T20:12:38.730Z,16.67
2023-05-21T20:15:07.110Z,18.65
2023-05-21T20:17:36.213Z,20.35
2023-05-21T20:20:11.214Z,17.65
2023-05-21T20:22:38.816Z,18.52
2023-05-21T20:25:08.722Z,25.40
2023-05-21T20:27:38.880Z,21.27
2023-05-21T20:30:07.824Z,17.45
2023-05-21T20:32:37.909Z,23.40
2023-05-21T20:35:09.084Z,18.95
2023-05-21T20:37:37.045Z,16.52
2023-05-21T20:40:06.833Z,18.70
2023-05-21T20:42:34.938Z,19.75
2023-05-21T20:45:03.089Z,21.90
2023-05-21T20:47:30.965Z,17.63
2023-05-21T20:50:03.668Z,17.63
2023-05-21T20:52:31.958Z,17.25
2023-05-21T20:54:59.742Z,19.85
2023-05-21T20:57:27.548Z,22.67
2023-05-21T20:59:55.144Z,16.25
2023-05-21T21:02:23.330Z,18.63
2023-05-21T21:04:52.022Z,21.10
2023-05-21T21:07:19.845Z,18.48
2023-05-21T21:09:49.251Z,18.00
2023-05-21T21:14:46.889Z,20.67
2023-05-21T21:17:14.232Z,20.02
2023-05-21T21:19:41.566Z,24.50
2023-05-21T21:22:08.951Z,18.48
2023-05-21T21:24:36.245Z,22.48
2023-05-21T21:27:06.917Z,22.50
2023-05-21T21:29:34.421Z,26.10
2023-05-21T21:32:01.901Z,18.95
2023-05-21T21:34:29.717Z,23.52
2023-05-21T21:36:57.438Z,17.45
2023-05-21T21:39:26.232Z,18.40
2023-05-21T21:41:53.686Z,20.48
2023-05-21T21:44:21.356Z,20.60
2023-05-21T21:46:48.968Z,20.13
2023-05-21T21:49:19.199Z,19.23
2023-05-21T21:51:46.675Z,19.60
2023-05-21T21:54:14.189Z,22.20
2023-05-21T21:56:41.765Z,19.58
2023-05-21T21:59:09.239Z,24.05
2023-05-21T22:01:36.940Z,20.58
2023-05-21T22:04:04.513Z,17.30
2023-05-21T22:06:32.065Z,21.17
2023-05-21T22:09:00.564Z,21.13
2023-05-21T22:11:28.439Z,19.85
2023-05-21T22:13:56.273Z,20.88
2023-05-21T22:16:27.543Z,21.65
2023-05-21T22:18:58.121Z,25.77
2023-05-21T22:21:29.590Z,20.60
2023-05-21T22:23:57.172Z,23.08
2023-05-21T22:26:24.559Z,22.83
2023-05-21T22:28:51.920Z,21.90
2023-05-21T22:31:19.429Z,22.35
2023-05-21T22:33:47.188Z,22.02
2023-05-21T22:36:14.548Z,18.80
2023-05-21T22:38:43.565Z,19.80
2023-05-21T22:41:11.625Z,23.38
2023-05-21T22:43:39.020Z,19.75
2023-05-21T22:46:06.583Z,24.25
2023-05-21T22:48:34.684Z,22.30
2023-05-21T22:51:02.478Z,21.42
2023-05-21T22:53:29.984Z,20.55
2023-05-21T22:55:58.525Z,24.50
2023-05-21T22:58:26.133Z,22.13
2023-05-21T23:00:53.542Z,22.52
2023-05-21T23:03:20.896Z,20.63
2023-05-21T23:05:48.302Z,23.58
2023-05-21T23:08:15.788Z,19.02
2023-05-21T23:10:43.318Z,21.42
2023-05-21T23:13:12.787Z,22.70
2023-05-21T23:15:40.264Z,18.75
2023-05-21T23:18:08.718Z,20.08
2023-05-21T23:20:36.861Z,19.50
2023-05-21T23:23:04.351Z,22.65
2023-05-21T23:25:31.879Z,21.73
2023-05-21T23:27:59.579Z,20.67
2023-05-21T23:30:27.026Z,20.35
2023-05-21T23:32:54.525Z,21.38
2023-05-21T23:35:21.998Z,21.50
2023-05-21T23:37:49.323Z,22.13
2023-05-21T23:40:16.729Z,20.35
2023-05-21T23:42:44.268Z,20.52
2023-05-21T23:45:11.704Z,18.38
2023-05-21T23:47:39.143Z,20.75
2023-05-21T23:50:07.465Z,18.30
2023-05-21T23:52:35.489Z,21.02
2023-05-21T23:55:03.234Z,20.13
2023-05-21T23:57:33.081Z,20.92
